createdAt,value
2023-03-29T00:15:04.852Z,4
2023-03-29T00:35:09.354Z,4
2023-03-29T00:55:13.074Z,3.9
2023-03-29T02:05:27.578Z,4.3
2023-03-29T02:35:34.786Z,4.9
2023-03-29T02:45:46.841Z,5
2023-03-29T02:55:49.440Z,5.1
2023-03-29T03:05:51.757Z,5.3
2023-03-29T03:15:54.379Z,5.4
2023-03-29T03:25:56.710Z,5.4
2023-03-29T03:35:59.068Z,5.5
2023-03-29T03:46:01.774Z,5.5
2023-03-29T03:56:03.986Z,5.6
2023-03-29T04:06:06.330Z,5.6
2023-03-29T04:16:08.264Z,5.8
2023-03-29T04:26:09.969Z,5.8
2023-03-29T04:36:12.737Z,5.6
2023-03-29T04:46:14.352Z,5.5
2023-03-29T04:56:16.536Z,5.5
2023-03-29T05:06:18.991Z,5.6
2023-03-29T05:16:21.483Z,5.6
2023-03-29T05:26:23.349Z,5.7
2023-03-29T05:46:27.861Z,5.8
2023-03-29T05:56:29.696Z,5.8
2023-03-29T06:06:31.423Z,5.8
2023-03-29T06:16:33.398Z,5.9
2023-03-29T06:26:35.764Z,6
2023-03-29T06:36:37.403Z,6.2
2023-03-29T06:46:40.265Z,6.3
2023-03-29T07:26:56.399Z,7.1
2023-03-29T07:46:53.500Z,7.5
2023-03-29T07:56:55.403Z,7.7
2023-03-29T08:06:57.837Z,8
2023-03-29T08:17:00.340Z,8.1
2023-03-29T08:27:02.762Z,8.2
2023-03-29T08:37:05.101Z,8.5
2023-03-29T08:47:06.806Z,8.5
2023-03-29T08:57:09.341Z,8.7
2023-03-29T09:07:11.951Z,8.8
2023-03-29T09:17:14.211Z,9
2023-03-29T09:27:16.058Z,9.1
2023-03-29T09:37:17.740Z,8.9
2023-03-29T09:47:20.009Z,8.4
2023-03-29T09:57:22.409Z,8.4
2023-03-29T10:07:24.586Z,8.6
2023-03-29T10:17:26.741Z,8.6
2023-03-29T10:27:28.368Z,8.6
2023-03-29T10:37:30.221Z,9
2023-03-29T10:47:31.960Z,9.4
2023-03-29T10:57:34.014Z,9.9
2023-03-29T11:07:36.249Z,9.9
2023-03-29T11:17:37.987Z,10.2
2023-03-29T11:27:40.197Z,10.5
2023-03-29T11:37:42.646Z,10.5
2023-03-29T11:47:44.481Z,11
2023-03-29T11:57:46.629Z,11.5
2023-03-29T12:07:48.606Z,12
2023-03-29T12:17:51.198Z,12.4
2023-03-29T12:27:53.835Z,12.5
2023-03-29T12:47:57.435Z,13
2023-03-29T12:58:00.130Z,13.1
2023-03-29T13:08:02.729Z,13.2
2023-03-29T13:18:05.277Z,13.3
2023-03-29T13:28:07.607Z,13.2
2023-03-29T13:38:09.617Z,13
2023-03-29T13:58:13.345Z,13.6
2023-03-29T14:08:15.502Z,13.5
2023-03-29T14:18:18.071Z,13.5
2023-03-29T14:28:20.463Z,13.8
2023-03-29T14:38:22.636Z,13.8
2023-03-29T14:48:25.029Z,13.9
2023-03-29T14:58:27.336Z,14.1
2023-03-29T15:08:29.154Z,14
2023-03-29T15:18:31.678Z,14.2
2023-03-29T15:28:34.102Z,14.2
2023-03-29T15:38:42.984Z,14.1
2023-03-29T15:48:37.923Z,14.1
2023-03-29T16:08:42.330Z,14.2
2023-03-29T16:18:44.918Z,14.1
2023-03-29T16:48:51.590Z,14.1
2023-03-29T17:08:56.137Z,14.1
2023-03-29T17:39:02.675Z,14
2023-03-29T17:59:06.108Z,14.2
2023-03-29T18:19:10.536Z,14.1
2023-03-29T18:59:19.202Z,14
2023-03-29T19:09:21.507Z,13.9
2023-03-29T19:19:23.579Z,13.9
2023-03-29T19:29:26.085Z,13.9
2023-03-29T19:39:27.887Z,13.9
2023-03-29T19:49:29.947Z,13.9
2023-03-29T19:59:31.864Z,13.7
2023-03-29T20:49:42.446Z,13.2
2023-03-29T21:09:46.233Z,13.2
2023-03-29T21:29:50.958Z,13.1
2023-03-29T21:59:58.007Z,13.1
2023-03-29T22:10:00.330Z,13
2023-03-29T22:40:07.147Z,12.7
2023-03-29T23:10:13.721Z,12.8
2023-03-29T23:30:18.468Z,12.8
2023-03-29T23:50:22.574Z,12.7
